Time;durP1;ratioP1;P1;durP2;ratioP2;P2;SDS_P1;SDS_P2;PMS_P1;PMS_P2;Temp;Humidity;BMP_temperature;BMP_pressure;BME280_temperature;BME280_humidity;BME280_pressure;Samples;Min_cycle;Max_cycle;Signal;HPM_P1;HPM_P2
2021/11/30 00:00:00;;;;;;;3.75;1.40;;;;;;;;;;5107988;28;20043;-68
2021/11/30 00:02:26;;;;;;;6.40;1.70;;;;;;;;;;5108482;28;20035;-68
2021/11/30 00:04:52;;;;;;;2.47;1.00;;;;;;;;;;5111343;28;20027;-68
2021/11/30 00:07:19;;;;;;;4.82;1.23;;;;;;;;;;5113331;28;20072;-70
2021/11/30 00:12:18;;;;;;;5.13;1.33;;;;;;;;;;5109058;28;20032;-68
2021/11/30 00:14:45;;;;;;;5.35;1.23;;;;;;;;;;5107145;28;20019;-69
2021/11/30 00:17:11;;;;;;;2.20;1.13;;;;;;;;;;5106039;28;20056;-68
2021/11/30 00:19:38;;;;;;;2.22;1.00;;;;;;;;;;5110506;28;20023;-68
2021/11/30 00:22:05;;;;;;;4.32;1.00;;;;;;;;;;5109673;28;20020;-68
2021/11/30 00:24:31;;;;;;;2.28;1.00;;;;;;;;;;5107472;28;20020;-68
2021/11/30 00:26:58;;;;;;;1.27;0.65;;;;;;;;;;5108504;28;20027;-68
2021/11/30 00:29:24;;;;;;;4.50;1.33;;;;;;;;;;5109427;28;20048;-67
2021/11/30 00:31:50;;;;;;;3.75;1.27;;;;;;;;;;5111720;28;20087;-68
2021/11/30 00:34:16;;;;;;;3.42;1.10;;;;;;;;;;5110272;28;20024;-68
2021/11/30 00:36:42;;;;;;;5.80;1.40;;;;;;;;;;5108595;28;20027;-68
2021/11/30 00:39:08;;;;;;;3.38;1.13;;;;;;;;;;5109292;28;20030;-69
2021/11/30 00:41:34;;;;;;;7.30;2.13;;;;;;;;;;5108822;28;20390;-68
2021/11/30 00:44:00;;;;;;;4.28;1.50;;;;;;;;;;5109246;28;20032;-68
2021/11/30 00:46:39;;;;;;;4.90;1.58;;;;;;;;;;5111574;28;20028;-68
2021/11/30 00:49:05;;;;;;;5.53;1.88;;;;;;;;;;5110278;28;20050;-68
2021/11/30 00:51:33;;;;;;;4.88;1.58;;;;;;;;;;5109055;28;20085;-68
2021/11/30 00:53:59;;;;;;;4.72;1.50;;;;;;;;;;5110023;28;20058;-68
2021/11/30 00:56:25;;;;;;;2.97;1.40;;;;;;;;;;5109019;28;20049;-68
2021/11/30 00:58:53;;;;;;;3.13;1.20;;;;;;;;;;5111276;28;20115;-68
2021/11/30 01:01:19;;;;;;;6.43;1.77;;;;;;;;;;5110349;28;20102;-68
2021/11/30 01:03:45;;;;;;;5.45;1.20;;;;;;;;;;5107893;28;20019;-68
2021/11/30 01:06:11;;;;;;;3.13;1.10;;;;;;;;;;5108386;28;20486;-68
2021/11/30 01:08:37;;;;;;;4.15;1.40;;;;;;;;;;5108913;28;20030;-68
2021/11/30 01:11:03;;;;;;;4.03;1.05;;;;;;;;;;5109317;28;20024;-68
2021/11/30 01:13:33;;;;;;;2.10;0.85;;;;;;;;;;5111596;28;20028;-68
2021/11/30 01:15:59;;;;;;;2.25;0.90;;;;;;;;;;5108257;28;20460;-68
2021/11/30 01:18:25;;;;;;;3.55;1.27;;;;;;;;;;5108360;28;20027;-68
2021/11/30 01:20:52;;;;;;;4.18;1.50;;;;;;;;;;5108134;28;20031;-68
2021/11/30 01:23:18;;;;;;;2.85;1.20;;;;;;;;;;5107481;28;20081;-68
2021/11/30 01:25:44;;;;;;;10.70;2.55;;;;;;;;;;5111751;28;20352;-68
2021/11/30 01:28:10;;;;;;;6.93;1.75;;;;;;;;;;5111049;28;20542;-68
2021/11/30 01:30:36;;;;;;;3.55;1.10;;;;;;;;;;5108254;28;20126;-68
2021/11/30 01:33:04;;;;;;;3.85;1.00;;;;;;;;;;5108603;28;20052;-68
2021/11/30 01:35:30;;;;;;;2.10;0.80;;;;;;;;;;5108975;28;20542;-68
2021/11/30 01:37:56;;;;;;;3.58;0.80;;;;;;;;;;5114116;28;20031;-68
2021/11/30 01:40:23;;;;;;;1.77;0.70;;;;;;;;;;5110951;28;20081;-68
2021/11/30 01:42:51;;;;;;;0.90;0.40;;;;;;;;;;5113807;28;20360;-68
2021/11/30 01:45:30;;;;;;;3.50;0.85;;;;;;;;;;5112504;28;20028;-68
2021/11/30 01:50:29;;;;;;;2.60;0.88;;;;;;;;;;5113223;28;20507;-68
2021/11/30 01:52:55;;;;;;;4.28;1.05;;;;;;;;;;5114927;28;20031;-68
2021/11/30 01:55:21;;;;;;;2.80;1.10;;;;;;;;;;5114682;28;20094;-68
2021/11/30 01:57:51;;;;;;;3.00;1.02;;;;;;;;;;5112272;28;20542;-68
2021/11/30 02:00:18;;;;;;;5.35;1.50;;;;;;;;;;5112269;28;20027;-68
2021/11/30 02:02:44;;;;;;;6.65;2.08;;;;;;;;;;5112411;28;20024;-68
2021/11/30 02:05:11;;;;;;;5.63;2.22;;;;;;;;;;5112891;28;20439;-68
2021/11/30 02:07:38;;;;;;;3.15;1.30;;;;;;;;;;5116712;28;20019;-68
2021/11/30 02:10:07;;;;;;;3.88;1.35;;;;;;;;;;5114838;28;20067;-68
2021/11/30 02:12:34;;;;;;;6.97;1.45;;;;;;;;;;5113415;28;20057;-68
2021/11/30 02:15:01;;;;;;;6.03;1.77;;;;;;;;;;5113009;28;20486;-68
2021/11/30 02:17:27;;;;;;;4.88;2.00;;;;;;;;;;5112559;28;20031;-68
2021/11/30 02:19:57;;;;;;;2.78;1.27;;;;;;;;;;5115670;28;20486;-68
2021/11/30 02:22:23;;;;;;;6.30;2.47;;;;;;;;;;5114316;28;20023;-68
2021/11/30 02:24:50;;;;;;;5.45;2.42;;;;;;;;;;5110274;28;20060;-68
2021/11/30 02:27:16;;;;;;;6.47;2.03;;;;;;;;;;5111280;28;20031;-68
2021/11/30 02:29:42;;;;;;;3.88;1.42;;;;;;;;;;5111191;28;20046;-68
2021/11/30 02:32:08;;;;;;;4.45;1.27;;;;;;;;;;5111275;28;20128;-68
2021/11/30 02:34:34;;;;;;;2.72;1.02;;;;;;;;;;5108950;28;20024;-68
2021/11/30 02:37:05;;;;;;;5.78;1.50;;;;;;;;;;5105686;28;20127;-68
2021/11/30 02:39:32;;;;;;;5.18;1.27;;;;;;;;;;5105783;28;20035;-68
2021/11/30 02:41:58;;;;;;;7.40;1.75;;;;;;;;;;5105603;28;20028;-68
2021/11/30 02:44:25;;;;;;;5.45;1.65;;;;;;;;;;5109975;28;20024;-68
2021/11/30 02:47:02;;;;;;;3.88;1.38;;;;;;;;;;5113629;28;20028;-68
2021/11/30 02:49:29;;;;;;;3.55;1.17;;;;;;;;;;5112862;28;20437;-69
2021/11/30 02:52:02;;;;;;;8.13;1.88;;;;;;;;;;5111152;28;20059;-68
2021/11/30 02:54:28;;;;;;;3.88;1.15;;;;;;;;;;5111273;28;20506;-68
2021/11/30 02:56:56;;;;;;;3.05;1.10;;;;;;;;;;5111936;28;20023;-68
2021/11/30 02:59:23;;;;;;;1.60;0.90;;;;;;;;;;5110877;28;20028;-68
2021/11/30 03:01:56;;;;;;;5.15;1.85;;;;;;;;;;5112663;28;20031;-68
2021/11/30 03:04:23;;;;;;;4.25;1.52;;;;;;;;;;5114696;28;20063;-68
2021/11/30 03:06:49;;;;;;;10.80;1.88;;;;;;;;;;5110757;28;20035;-69
2021/11/30 03:09:15;;;;;;;3.15;1.23;;;;;;;;;;5110909;28;20036;-68
2021/11/30 03:11:41;;;;;;;7.15;1.50;;;;;;;;;;5110477;28;20386;-68
2021/11/30 03:14:08;;;;;;;6.70;2.03;;;;;;;;;;5109517;28;20026;-68
2021/11/30 03:16:34;;;;;;;3.13;1.40;;;;;;;;;;5113913;28;20483;-68
2021/11/30 03:19:00;;;;;;;3.17;1.40;;;;;;;;;;5110288;28;20024;-68
2021/11/30 03:21:26;;;;;;;4.80;1.50;;;;;;;;;;5110788;28;20028;-68
2021/11/30 03:23:52;;;;;;;6.18;1.60;;;;;;;;;;5109211;28;20042;-68
2021/11/30 03:26:18;;;;;;;2.47;1.00;;;;;;;;;;5110146;28;20360;-68
2021/11/30 03:28:44;;;;;;;6.03;1.35;;;;;;;;;;5112514;28;20471;-68
2021/11/30 03:32:07;;;;;;;2.88;1.30;;;;;;;;;;5112319;28;20055;-68
2021/11/30 03:34:01;;;;;;;6.55;1.67;;;;;;;;;;5104260;28;20097;-68
2021/11/30 03:36:32;;;;;;;4.35;1.60;;;;;;;;;;5110060;28;20026;-69
2021/11/30 03:38:58;;;;;;;8.32;1.70;;;;;;;;;;5110165;27;20443;-68
2021/11/30 03:41:28;;;;;;;3.67;1.30;;;;;;;;;;5108411;28;20055;-68
2021/11/30 03:43:54;;;;;;;1.08;0.77;;;;;;;;;;5112042;28;20027;-68
2021/11/30 03:46:20;;;;;;;1.05;0.60;;;;;;;;;;5111605;28;20027;-69
2021/11/30 03:48:46;;;;;;;3.10;1.30;;;;;;;;;;5108140;28;20027;-68
2021/11/30 03:51:12;;;;;;;4.00;1.45;;;;;;;;;;5109604;28;20073;-68
2021/11/30 03:53:38;;;;;;;3.72;1.40;;;;;;;;;;5110271;28;20499;-68
2021/11/30 03:56:04;;;;;;;3.85;1.52;;;;;;;;;;5110384;28;20028;-68
2021/11/30 03:58:30;;;;;;;3.72;1.52;;;;;;;;;;5111686;28;20076;-68
2021/11/30 04:00:56;;;;;;;3.90;1.63;;;;;;;;;;5110778;28;20114;-68
2021/11/30 04:03:23;;;;;;;5.00;1.50;;;;;;;;;;5109985;28;20040;-68
2021/11/30 04:05:49;;;;;;;3.95;1.52;;;;;;;;;;5109563;28;20015;-68
2021/11/30 04:08:15;;;;;;;4.38;1.42;;;;;;;;;;5109595;28;20479;-68
2021/11/30 04:10:41;;;;;;;3.60;1.50;;;;;;;;;;5110631;28;20046;-69
2021/11/30 04:13:08;;;;;;;7.90;2.78;;;;;;;;;;5108260;28;20069;-68
2021/11/30 04:15:34;;;;;;;6.90;2.22;;;;;;;;;;5109412;28;20425;-68
2021/11/30 04:18:00;;;;;;;3.97;1.67;;;;;;;;;;5109570;28;20030;-69
2021/11/30 04:20:26;;;;;;;4.00;1.50;;;;;;;;;;5107444;28;20467;-69
2021/11/30 04:22:52;;;;;;;4.10;1.45;;;;;;;;;;5111627;28;20028;-69
2021/11/30 04:25:18;;;;;;;1.42;0.57;;;;;;;;;;5109063;28;20039;-68
2021/11/30 04:27:44;;;;;;;4.57;1.45;;;;;;;;;;5106885;28;20155;-69
2021/11/30 04:30:10;;;;;;;4.25;1.73;;;;;;;;;;5103883;28;20035;-69
2021/11/30 04:32:36;;;;;;;5.00;1.80;;;;;;;;;;5107359;28;20737;-68
2021/11/30 04:35:03;;;;;;;4.70;1.70;;;;;;;;;;5104594;28;20100;-70
2021/11/30 04:37:29;;;;;;;4.95;1.80;;;;;;;;;;5106120;28;20070;-68
2021/11/30 04:39:55;;;;;;;2.92;1.40;;;;;;;;;;5106206;28;20153;-68
2021/11/30 04:42:25;;;;;;;2.05;1.02;;;;;;;;;;5106271;28;20437;-69
2021/11/30 04:44:58;;;;;;;3.13;1.23;;;;;;;;;;5105344;28;20070;-66
2021/11/30 04:47:28;;;;;;;3.25;1.50;;;;;;;;;;5102083;28;20049;-67
2021/11/30 04:50:06;;;;;;;8.10;1.60;;;;;;;;;;5103439;28;20031;-67
2021/11/30 04:52:33;;;;;;;2.25;1.10;;;;;;;;;;5107976;28;20055;-67
2021/11/30 04:54:59;;;;;;;3.95;1.58;;;;;;;;;;5102394;28;20116;-67
2021/11/30 04:57:25;;;;;;;3.42;1.30;;;;;;;;;;5110858;28;20059;-67
2021/11/30 04:59:51;;;;;;;3.20;1.38;;;;;;;;;;5108285;28;20084;-68
2021/11/30 05:02:19;;;;;;;1.13;0.75;;;;;;;;;;5108547;28;20081;-67
2021/11/30 05:04:47;;;;;;;1.97;0.63;;;;;;;;;;5111401;28;20024;-67
2021/11/30 05:07:14;;;;;;;2.35;1.02;;;;;;;;;;5110281;28;20024;-67
2021/11/30 05:09:40;;;;;;;3.08;1.30;;;;;;;;;;5107949;28;20040;-67
2021/11/30 05:12:06;;;;;;;3.28;1.27;;;;;;;;;;5109169;28;20479;-67
2021/11/30 05:14:32;;;;;;;4.35;1.55;;;;;;;;;;5113187;28;20035;-67
2021/11/30 05:16:58;;;;;;;2.60;1.42;;;;;;;;;;5114349;28;20042;-67
2021/11/30 05:19:24;;;;;;;2.58;1.50;;;;;;;;;;5115191;28;20437;-68
2021/11/30 05:21:50;;;;;;;2.97;1.42;;;;;;;;;;5113055;28;20035;-68
2021/11/30 05:24:19;;;;;;;3.97;1.20;;;;;;;;;;5112215;28;20467;-67
2021/11/30 05:26:45;;;;;;;;;;;;;;;;;;5114844;28;20047;-67
2021/11/30 05:29:11;;;;;;;5.55;1.38;;;;;;;;;;5113030;28;20362;-68
2021/11/30 05:31:37;;;;;;;1.73;0.88;;;;;;;;;;5116246;28;20088;-67
2021/11/30 05:34:04;;;;;;;1.73;0.70;;;;;;;;;;5112800;28;20514;-68
2021/11/30 05:36:30;;;;;;;1.65;0.90;;;;;;;;;;5111943;28;20027;-68
2021/11/30 05:38:57;;;;;;;2.65;1.00;;;;;;;;;;5112431;28;20058;-68
2021/11/30 05:41:23;;;;;;;2.13;0.93;;;;;;;;;;5112491;28;20172;-68
2021/11/30 05:43:48;;;;;;;2.88;1.25;;;;;;;;;;5114836;28;20439;-67
2021/11/30 05:46:15;;;;;;;4.20;1.60;;;;;;;;;;5112885;28;20042;-67
2021/11/30 05:48:41;;;;;;;8.10;1.35;;;;;;;;;;5112015;28;20024;-67
2021/11/30 05:51:07;;;;;;;4.53;1.95;;;;;;;;;;5112295;28;20031;-67
2021/11/30 05:53:33;;;;;;;4.68;2.17;;;;;;;;;;5112007;28;20024;-67
2021/11/30 05:56:00;;;;;;;4.00;1.63;;;;;;;;;;5113390;28;20034;-68
2021/11/30 05:58:27;;;;;;;3.17;1.50;;;;;;;;;;5114062;28;20032;-68
2021/11/30 06:00:59;;;;;;;6.55;1.67;;;;;;;;;;5112391;28;20038;-73
2021/11/30 06:03:45;;;;;;;2.42;1.33;;;;;;;;;;5112341;28;20027;-72
2021/11/30 06:06:20;;;;;;;3.03;1.30;;;;;;;;;;5106014;28;20031;-72
2021/11/30 06:08:46;;;;;;;4.38;1.40;;;;;;;;;;5112187;28;20368;-72
2021/11/30 06:11:12;;;;;;;3.60;1.10;;;;;;;;;;5111150;28;20028;-72
2021/11/30 06:13:38;;;;;;;9.45;2.20;;;;;;;;;;5114627;28;20032;-72
2021/11/30 06:16:04;;;;;;;5.20;1.77;;;;;;;;;;5111687;28;20034;-73
2021/11/30 06:18:30;;;;;;;10.10;3.33;;;;;;;;;;5112059;28;20035;-73
2021/11/30 06:20:57;;;;;;;19.15;6.85;;;;;;;;;;5112415;28;20034;-73
2021/11/30 06:23:24;;;;;;;4.05;1.40;;;;;;;;;;5110215;28;20050;-72
2021/11/30 06:25:50;;;;;;;6.82;2.08;;;;;;;;;;5113972;28;20062;-72
2021/11/30 06:28:16;;;;;;;4.03;1.52;;;;;;;;;;5112613;28;20339;-72
2021/11/30 06:30:42;;;;;;;4.57;2.10;;;;;;;;;;5111253;28;20168;-72
2021/11/30 06:33:08;;;;;;;2.83;1.30;;;;;;;;;;5110772;28;20119;-73
2021/11/30 06:35:37;;;;;;;5.50;2.42;;;;;;;;;;5111691;28;20076;-74
2021/11/30 06:38:03;;;;;;;8.00;3.22;;;;;;;;;;5111875;28;20028;-74
2021/11/30 06:40:29;;;;;;;12.02;3.83;;;;;;;;;;5113864;28;20031;-73
2021/11/30 06:42:55;;;;;;;9.48;3.20;;;;;;;;;;5109954;28;20024;-73
2021/11/30 06:45:21;;;;;;;11.70;3.60;;;;;;;;;;5110553;28;20023;-73
2021/11/30 06:47:47;;;;;;;7.57;2.60;;;;;;;;;;5110891;28;20020;-73
2021/11/30 06:50:13;;;;;;;6.18;2.72;;;;;;;;;;5109554;28;20040;-73
2021/11/30 06:52:40;;;;;;;5.05;2.25;;;;;;;;;;5114493;28;20028;-72
2021/11/30 06:55:09;;;;;;;8.55;2.63;;;;;;;;;;5111440;28;20063;-72
2021/11/30 06:57:36;;;;;;;5.70;2.17;;;;;;;;;;5110136;28;20035;-73
2021/11/30 07:00:05;;;;;;;10.32;3.20;;;;;;;;;;5110492;28;20066;-72
2021/11/30 07:02:32;;;;;;;7.40;3.30;;;;;;;;;;5110985;28;20085;-72
2021/11/30 07:05:05;;;;;;;9.13;3.63;;;;;;;;;;5112080;28;20450;-72
2021/11/30 07:07:53;;;;;;;7.40;2.95;;;;;;;;;;5113833;28;20360;-73
2021/11/30 07:13:14;;;;;;;8.95;3.40;;;;;;;;;;5110030;28;20099;-72
2021/11/30 07:15:40;;;;;;;16.48;5.00;;;;;;;;;;5110623;28;20023;-72
2021/11/30 07:18:07;;;;;;;16.70;5.13;;;;;;;;;;5110426;28;20022;-72
2021/11/30 07:20:33;;;;;;;20.13;5.78;;;;;;;;;;5109201;28;20032;-73
2021/11/30 07:22:59;;;;;;;16.40;6.10;;;;;;;;;;5111120;28;20093;-73
2021/11/30 07:25:25;;;;;;;21.63;7.00;;;;;;;;;;5112836;28;20034;-73
2021/11/30 07:27:52;;;;;;;17.02;5.80;;;;;;;;;;5109855;28;20016;-72
2021/11/30 07:30:18;;;;;;;21.52;7.13;;;;;;;;;;5109853;28;20539;-72
2021/11/30 07:32:44;;;;;;;16.38;6.07;;;;;;;;;;5109645;28;20075;-73
2021/11/30 07:35:10;;;;;;;18.13;7.07;;;;;;;;;;5109463;27;20058;-73
2021/11/30 07:37:36;;;;;;;21.02;7.28;;;;;;;;;;5113635;28;20076;-73
2021/11/30 07:40:03;;;;;;;17.90;7.18;;;;;;;;;;5108523;28;20112;-72
2021/11/30 07:42:30;;;;;;;15.95;6.95;;;;;;;;;;5109547;28;20097;-73
2021/11/30 07:44:57;;;;;;;17.30;7.10;;;;;;;;;;5109873;28;20023;-73
2021/11/30 07:47:23;;;;;;;13.88;6.22;;;;;;;;;;5109941;28;20039;-72
2021/11/30 07:49:49;;;;;;;15.48;5.57;;;;;;;;;;5111823;28;20475;-72
2021/11/30 07:52:15;;;;;;;13.60;5.68;;;;;;;;;;5110181;28;20032;-72
2021/11/30 07:54:41;;;;;;;13.02;4.50;;;;;;;;;;5109918;28;20076;-71
2021/11/30 07:57:07;;;;;;;13.15;5.13;;;;;;;;;;5108125;28;20102;-72
2021/11/30 07:59:33;;;;;;;11.52;4.82;;;;;;;;;;5109008;28;20023;-74
2021/11/30 08:01:59;;;;;;;12.02;4.55;;;;;;;;;;5108976;28;20039;-73
2021/11/30 08:04:26;;;;;;;11.75;5.30;;;;;;;;;;5111588;28;20028;-71
2021/11/30 08:06:52;;;;;;;12.90;5.43;;;;;;;;;;5108568;28;20035;-72
2021/11/30 08:09:18;;;;;;;13.45;5.40;;;;;;;;;;5109291;28;20051;-73
2021/11/30 08:11:44;;;;;;;11.70;5.50;;;;;;;;;;5109615;28;20102;-73
2021/11/30 08:14:11;;;;;;;10.75;5.50;;;;;;;;;;5109015;28;20076;-74
2021/11/30 08:16:38;;;;;;;14.07;7.20;;;;;;;;;;5112511;28;20023;-74
2021/11/30 08:19:04;;;;;;;20.83;8.38;;;;;;;;;;5109610;28;20027;-73
2021/11/30 08:21:30;;;;;;;19.52;9.07;;;;;;;;;;5109508;28;20028;-74
2021/11/30 08:23:56;;;;;;;21.10;9.10;;;;;;;;;;5107772;28;20055;-74
2021/11/30 08:26:22;;;;;;;16.40;7.82;;;;;;;;;;5108946;28;20416;-74
2021/11/30 08:28:48;;;;;;;14.38;6.03;;;;;;;;;;5111299;28;20035;-74
2021/11/30 08:31:14;;;;;;;10.73;5.43;;;;;;;;;;5110089;28;20023;-74
2021/11/30 08:33:40;;;;;;;11.90;4.63;;;;;;;;;;5109162;28;20038;-75
2021/11/30 08:36:06;;;;;;;11.77;4.47;;;;;;;;;;5109272;28;20395;-73
2021/11/30 08:38:32;;;;;;;13.75;5.43;;;;;;;;;;5108361;28;20031;-73
2021/11/30 08:40:59;;;;;;;16.38;7.18;;;;;;;;;;5110493;28;20068;-74
2021/11/30 08:43:26;;;;;;;10.82;5.05;;;;;;;;;;5111403;28;20024;-74
2021/11/30 08:45:54;;;;;;;11.93;5.18;;;;;;;;;;5103522;28;20028;-74
2021/11/30 08:48:20;;;;;;;9.48;4.78;;;;;;;;;;5092320;28;20024;-75
2021/11/30 08:50:46;;;;;;;11.55;4.70;;;;;;;;;;5096707;28;20066;-74
2021/11/30 08:53:12;;;;;;;12.98;5.68;;;;;;;;;;5108180;28;20106;-74
2021/11/30 08:55:38;;;;;;;9.18;3.92;;;;;;;;;;5112063;28;20034;-74
2021/11/30 08:58:05;;;;;;;8.32;3.03;;;;;;;;;;5109591;28;20024;-74
2021/11/30 09:00:31;;;;;;;8.20;3.30;;;;;;;;;;5107387;28;20055;-72
2021/11/30 09:02:57;;;;;;;7.05;3.10;;;;;;;;;;5107692;28;20151;-72
2021/11/30 09:05:23;;;;;;;3.65;1.70;;;;;;;;;;5107146;28;20036;-73
2021/11/30 09:07:50;;;;;;;7.80;2.63;;;;;;;;;;5105053;28;20081;-75
2021/11/30 09:10:17;;;;;;;5.80;2.78;;;;;;;;;;5109739;28;20122;-75
2021/11/30 09:12:43;;;;;;;5.75;2.10;;;;;;;;;;5102965;28;20101;-75
2021/11/30 09:15:09;;;;;;;5.13;2.47;;;;;;;;;;5102502;28;20060;-75
2021/11/30 09:17:38;;;;;;;7.75;2.53;;;;;;;;;;5107776;28;20086;-69
2021/11/30 09:20:05;;;;;;;6.20;2.70;;;;;;;;;;5107952;28;20089;-76
2021/11/30 09:22:31;;;;;;;6.90;2.70;;;;;;;;;;5110271;28;20051;-75
2021/11/30 09:24:58;;;;;;;5.70;2.58;;;;;;;;;;5108283;28;20028;-75
2021/11/30 09:27:25;;;;;;;5.40;2.40;;;;;;;;;;5108792;28;20031;-75
2021/11/30 09:29:52;;;;;;;7.87;2.43;;;;;;;;;;5106104;28;20399;-75
2021/11/30 09:32:18;;;;;;;3.70;1.90;;;;;;;;;;5107304;28;20044;-75
2021/11/30 09:34:44;;;;;;;4.68;1.65;;;;;;;;;;5109616;28;20364;-74
2021/11/30 09:37:11;;;;;;;4.55;1.80;;;;;;;;;;5109399;28;20080;-75
2021/11/30 09:39:37;;;;;;;6.47;2.35;;;;;;;;;;5107618;28;20027;-65
2021/11/30 09:42:04;;;;;;;7.75;2.58;;;;;;;;;;5109577;28;20073;-68
2021/11/30 09:44:31;;;;;;;4.75;2.20;;;;;;;;;;5107130;28;20039;-68
2021/11/30 09:46:58;;;;;;;;;;;;;;;;;;5109193;28;20131;-65
2021/11/30 09:49:24;;;;;;;5.47;2.17;;;;;;;;;;5108536;28;20006;-67
2021/11/30 09:51:50;;;;;;;3.85;1.52;;;;;;;;;;5106753;28;20027;-67
2021/11/30 09:54:17;;;;;;;3.05;1.40;;;;;;;;;;5107105;28;20042;-67
2021/11/30 09:56:43;;;;;;;2.40;1.42;;;;;;;;;;5108145;28;20528;-66
2021/11/30 09:59:09;;;;;;;4.20;1.67;;;;;;;;;;5110673;28;20019;-67
2021/11/30 10:01:35;;;;;;;3.25;1.50;;;;;;;;;;5110170;28;20467;-67
2021/11/30 10:04:03;;;;;;;3.67;1.60;;;;;;;;;;5111490;28;20099;-68
2021/11/30 10:06:29;;;;;;;3.03;1.40;;;;;;;;;;5110798;28;20155;-67
2021/11/30 10:08:56;;;;;;;2.92;1.48;;;;;;;;;;5110989;28;20100;-66
2021/11/30 10:11:28;;;;;;;6.43;1.98;;;;;;;;;;5110586;28;20044;-67
2021/11/30 10:14:10;;;;;;;2.38;1.17;;;;;;;;;;5112788;28;20047;-67
2021/11/30 10:16:36;;;;;;;3.10;1.23;;;;;;;;;;5110610;28;20047;-68
2021/11/30 10:19:02;;;;;;;3.05;1.20;;;;;;;;;;5110886;28;20086;-69
2021/11/30 10:21:28;;;;;;;2.15;1.23;;;;;;;;;;5110223;28;20111;-68
2021/11/30 10:24:01;;;;;;;5.57;1.70;;;;;;;;;;5111042;28;20023;-68
2021/11/30 10:26:33;;;;;;;2.45;1.27;;;;;;;;;;5111399;28;20016;-67
2021/11/30 10:29:04;;;;;;;4.32;2.17;;;;;;;;;;5111948;28;20116;-67
2021/11/30 10:31:33;;;;;;;3.20;1.35;;;;;;;;;;5107853;28;20108;-68
2021/11/30 10:33:59;;;;;;;5.38;2.03;;;;;;;;;;5108770;28;20022;-67
2021/11/30 10:36:25;;;;;;;2.35;1.30;;;;;;;;;;5110190;28;20095;-66
2021/11/30 10:38:51;;;;;;;2.75;1.40;;;;;;;;;;5109948;28;20016;-71
2021/11/30 10:41:20;;;;;;;1.13;0.70;;;;;;;;;;5112578;28;20108;-71
2021/11/30 10:43:56;;;;;;;3.63;1.20;;;;;;;;;;5111505;28;20027;-74
2021/11/30 10:46:24;;;;;;;2.45;1.58;;;;;;;;;;5108575;28;20035;-75
2021/11/30 10:48:50;;;;;;;5.45;2.33;;;;;;;;;;5106979;28;20034;-74
2021/11/30 10:51:17;;;;;;;2.95;1.55;;;;;;;;;;5109318;28;20027;-74
2021/11/30 10:53:44;;;;;;;1.65;0.90;;;;;;;;;;5110031;28;20098;-74
2021/11/30 10:56:11;;;;;;;1.02;0.77;;;;;;;;;;5110926;28;20498;-74
2021/11/30 10:58:38;;;;;;;0.70;0.52;;;;;;;;;;5113612;28;20028;-69
2021/11/30 11:01:09;;;;;;;2.03;0.60;;;;;;;;;;5110304;28;20551;-70
2021/11/30 11:03:35;;;;;;;0.70;0.50;;;;;;;;;;5110588;28;21772;-70
2021/11/30 11:06:44;;;;;;;1.45;0.50;;;;;;;;;;5110184;28;20059;-69
2021/11/30 11:08:55;;;;;;;0.85;0.40;;;;;;;;;;5090899;28;20027;-70
2021/11/30 11:11:23;;;;;;;4.82;0.43;;;;;;;;;;5109507;28;20164;-70
2021/11/30 11:13:49;;;;;;;0.83;0.40;;;;;;;;;;5111685;28;20088;-69
2021/11/30 11:16:19;;;;;;;2.35;0.40;;;;;;;;;;5109404;28;20031;-70
2021/11/30 11:18:46;;;;;;;0.82;0.20;;;;;;;;;;5109593;28;20032;-70
2021/11/30 11:21:12;;;;;;;0.55;0.32;;;;;;;;;;5105329;28;20059;-70
2021/11/30 11:23:42;;;;;;;1.05;0.50;;;;;;;;;;5104704;28;20092;-71
2021/11/30 11:26:15;;;;;;;3.92;0.20;;;;;;;;;;5089195;28;20051;-70
2021/11/30 11:28:42;;;;;;;0.63;0.30;;;;;;;;;;5090685;28;20063;-69
2021/11/30 11:31:08;;;;;;;0.43;0.30;;;;;;;;;;5108300;28;20096;-68
2021/11/30 11:33:35;;;;;;;2.00;0.40;;;;;;;;;;5106013;28;20046;-70
2021/11/30 11:36:01;;;;;;;1.40;0.80;;;;;;;;;;5101656;28;20035;-71
2021/11/30 11:38:27;;;;;;;0.82;0.50;;;;;;;;;;5107461;28;20399;-70
2021/11/30 11:40:53;;;;;;;1.50;0.57;;;;;;;;;;5108918;28;21218;-67
2021/11/30 11:43:20;;;;;;;1.90;0.70;;;;;;;;;;5105125;28;20096;-71
2021/11/30 11:45:46;;;;;;;2.42;0.75;;;;;;;;;;5103420;28;20063;-70
2021/11/30 11:48:13;;;;;;;1.23;0.70;;;;;;;;;;5107339;28;20041;-70
2021/11/30 11:50:59;;;;;;;2.40;0.98;;;;;;;;;;5098216;28;20119;-72
2021/11/30 11:53:25;;;;;;;1.35;0.60;;;;;;;;;;5093766;28;20115;-69
2021/11/30 11:56:12;;;;;;;1.15;0.60;;;;;;;;;;5108868;28;20481;-70
2021/11/30 11:58:41;;;;;;;2.40;0.77;;;;;;;;;;5106953;28;20028;-69
2021/11/30 12:01:13;;;;;;;3.10;0.80;;;;;;;;;;5107570;28;20042;-70
2021/11/30 12:03:49;;;;;;;2.10;0.85;;;;;;;;;;5102827;28;20020;-70
2021/11/30 12:06:16;;;;;;;1.13;0.60;;;;;;;;;;5105927;28;20451;-70
2021/11/30 12:09:02;;;;;;;3.50;0.80;;;;;;;;;;5107033;28;20101;-68
2021/11/30 12:11:35;;;;;;;1.45;0.57;;;;;;;;;;5095454;28;20059;-70
2021/11/30 12:14:08;;;;;;;1.35;0.60;;;;;;;;;;5105488;28;20047;-69
2021/11/30 12:16:54;;;;;;;2.05;0.60;;;;;;;;;;5109385;28;20432;-69
2021/11/30 12:19:30;;;;;;;3.35;0.80;;;;;;;;;;5108953;28;20032;-72
2021/11/30 12:21:56;;;;;;;2.58;0.70;;;;;;;;;;5108464;28;20063;-71
2021/11/30 12:24:37;;;;;;;1.33;0.63;;;;;;;;;;5108432;28;20063;-72
2021/11/30 12:27:24;;;;;;;1.13;0.65;;;;;;;;;;5108603;28;20041;-71
2021/11/30 12:29:50;;;;;;;0.90;0.63;;;;;;;;;;5093718;28;20482;-73
2021/11/30 12:32:30;;;;;;;2.00;0.80;;;;;;;;;;5105363;28;20135;-71
2021/11/30 12:34:59;;;;;;;3.65;0.88;;;;;;;;;;5093617;28;20419;-70
2021/11/30 12:37:27;;;;;;;2.38;0.85;;;;;;;;;;5104545;28;20059;-70
2021/11/30 12:40:02;;;;;;;1.10;0.80;;;;;;;;;;5108272;28;20024;-70
2021/11/30 12:42:28;;;;;;;2.92;0.73;;;;;;;;;;5110347;28;20031;-70
2021/11/30 12:44:56;;;;;;;1.42;0.60;;;;;;;;;;5108191;28;20030;-70
2021/11/30 12:47:25;;;;;;;1.40;0.50;;;;;;;;;;5106895;28;20027;-70
2021/11/30 12:49:52;;;;;;;2.28;0.70;;;;;;;;;;5110649;28;20114;-70
2021/11/30 12:52:19;;;;;;;1.92;0.60;;;;;;;;;;5108789;28;20076;-70
2021/11/30 12:54:50;;;;;;;1.83;0.60;;;;;;;;;;5107970;28;20080;-69
2021/11/30 12:57:37;;;;;;;7.22;2.47;;;;;;;;;;5108252;28;20106;-70
2021/11/30 13:00:11;;;;;;;6.80;2.40;;;;;;;;;;5093254;28;20067;-73
2021/11/30 13:02:46;;;;;;;4.43;1.95;;;;;;;;;;5108839;28;20020;-73
2021/11/30 13:05:13;;;;;;;3.85;1.65;;;;;;;;;;5092338;28;20459;-73
2021/11/30 13:07:51;;;;;;;4.15;1.23;;;;;;;;;;5110265;28;20416;-72
2021/11/30 13:10:25;;;;;;;3.17;1.48;;;;;;;;;;5110102;28;20846;-74
2021/11/30 13:12:52;;;;;;;2.90;1.00;;;;;;;;;;5108119;28;20104;-73
2021/11/30 13:15:19;;;;;;;2.60;1.13;;;;;;;;;;5107750;28;20456;-74
2021/11/30 13:17:45;;;;;;;7.70;3.47;;;;;;;;;;5107268;28;20520;-74
2021/11/30 13:20:14;;;;;;;5.20;2.00;;;;;;;;;;5105164;28;20115;-72
2021/11/30 13:22:44;;;;;;;7.57;2.20;;;;;;;;;;5110867;28;20024;-74
2021/11/30 13:25:15;;;;;;;6.38;2.00;;;;;;;;;;5108904;28;20027;-74
2021/11/30 13:27:55;;;;;;;4.65;2.00;;;;;;;;;;5108701;28;20114;-74
2021/11/30 13:30:22;;;;;;;5.68;2.03;;;;;;;;;;5107843;28;20451;-75
2021/11/30 13:32:52;;;;;;;5.30;2.10;;;;;;;;;;5108504;28;20044;-74
2021/11/30 13:35:18;;;;;;;5.00;2.15;;;;;;;;;;5110914;28;20039;-73
2021/11/30 13:37:54;;;;;;;7.13;2.20;;;;;;;;;;5114009;28;20031;-73
2021/11/30 13:40:32;;;;;;;4.47;2.05;;;;;;;;;;5112940;28;20379;-73
2021/11/30 13:43:01;;;;;;;5.70;2.35;;;;;;;;;;5114335;28;20043;-73
2021/11/30 13:45:28;;;;;;;7.85;3.40;;;;;;;;;;5111346;28;20031;-73
2021/11/30 13:47:54;;;;;;;6.07;3.00;;;;;;;;;;5110875;28;20023;-74
2021/11/30 13:50:21;;;;;;;5.38;2.50;;;;;;;;;;5108308;28;20043;-73
2021/11/30 13:52:47;;;;;;;7.25;2.90;;;;;;;;;;5114185;28;20034;-74
2021/11/30 13:55:14;;;;;;;4.15;1.58;;;;;;;;;;5113586;28;20474;-73
2021/11/30 13:57:40;;;;;;;2.45;1.00;;;;;;;;;;5111923;28;20028;-73
2021/11/30 14:00:17;;;;;;;3.30;1.50;;;;;;;;;;5110872;28;20031;-73
2021/11/30 14:02:44;;;;;;;8.10;3.15;;;;;;;;;;5112284;28;20050;-69
2021/11/30 14:05:11;;;;;;;5.18;2.13;;;;;;;;;;5111099;28;20164;-73
2021/11/30 14:07:38;;;;;;;8.27;3.83;;;;;;;;;;5110572;28;20024;-74
2021/11/30 14:10:14;;;;;;;12.15;4.50;;;;;;;;;;5109742;28;20108;-74
2021/11/30 14:12:40;;;;;;;6.75;3.15;;;;;;;;;;5111432;28;20032;-74
2021/11/30 14:15:08;;;;;;;9.15;4.22;;;;;;;;;;5112379;28;20418;-72
2021/11/30 14:17:37;;;;;;;11.40;4.97;;;;;;;;;;5110842;28;20023;-72
2021/11/30 14:20:23;;;;;;;9.35;3.78;;;;;;;;;;5108128;28;20036;-72
2021/11/30 14:22:49;;;;;;;9.25;4.28;;;;;;;;;;5110840;28;20027;-72
2021/11/30 14:25:17;;;;;;;8.32;3.53;;;;;;;;;;5111677;28;20395;-72
2021/11/30 14:27:51;;;;;;;10.70;4.23;;;;;;;;;;5111586;28;20049;-72
2021/11/30 14:30:17;;;;;;;8.07;3.67;;;;;;;;;;5111565;28;20051;-72
2021/11/30 14:32:44;;;;;;;10.60;4.20;;;;;;;;;;5110329;28;20104;-71
2021/11/30 14:35:14;;;;;;;10.55;4.97;;;;;;;;;;5110956;28;20034;-71
2021/11/30 14:37:48;;;;;;;22.83;10.00;;;;;;;;;;5110119;28;20493;-72
2021/11/30 14:40:19;;;;;;;12.85;6.30;;;;;;;;;;5109901;28;20203;-72
2021/11/30 14:42:49;;;;;;;13.20;5.40;;;;;;;;;;5112012;28;20028;-72
2021/11/30 14:45:21;;;;;;;12.35;5.45;;;;;;;;;;5110498;28;20027;-72
2021/11/30 14:47:48;;;;;;;10.82;4.63;;;;;;;;;;5108620;28;20027;-71
2021/11/30 14:50:16;;;;;;;9.30;4.25;;;;;;;;;;5109985;28;20043;-72
2021/11/30 14:52:44;;;;;;;15.48;6.85;;;;;;;;;;5113678;28;20349;-72